sensor_id;sensor_type;location;lat;lon;timestamp;pressure;altitude;pressure_sealevel;temperature;humidity
43125;BME280;49182;50.788;7.318;2023-07-29T00:04:04;100099.56;;;18.51;100.00
43125;BME280;49182;50.788;7.318;2023-07-29T00:09:05;100091.94;;;18.54;100.00
43125;BME280;49182;50.788;7.318;2023-07-29T00:14:08;100085.59;;;18.55;100.00
43125;BME280;49182;50.788;7.318;2023-07-29T00:19:10;100074.13;;;18.62;100.00
43125;BME280;49182;50.788;7.318;2023-07-29T00:24:12;100078.00;;;18.59;100.00
43125;BME280;49182;50.788;7.318;2023-07-29T00:29:15;100079.44;;;18.55;100.00
43125;BME280;49182;50.788;7.318;2023-07-29T00:34:16;100072.41;;;18.54;100.00
43125;BME280;49182;50.788;7.318;2023-07-29T00:39:19;100066.88;;;18.55;100.00
43125;BME280;49182;50.788;7.318;2023-07-29T00:44:22;100064.84;;;18.57;100.00
43125;BME280;49182;50.788;7.318;2023-07-29T00:49:24;100058.88;;;18.55;100.00
43125;BME280;49182;50.788;7.318;2023-07-29T00:54:26;100060.06;;;18.53;100.00
43125;BME280;49182;50.788;7.318;2023-07-29T00:59:30;100060.06;;;18.53;100.00
43125;BME280;49182;50.788;7.318;2023-07-29T01:04:32;100058.03;;;18.55;100.00
43125;BME280;49182;50.788;7.318;2023-07-29T01:09:41;100045.66;;;18.54;100.00
43125;BME280;49182;50.788;7.318;2023-07-29T01:14:53;100043.66;;;18.56;100.00
43125;BME280;49182;50.788;7.318;2023-07-29T01:20:00;99992.50;;;18.25;100.00
43125;BME280;49182;50.788;7.318;2023-07-29T01:25:04;100036.22;;;18.58;100.00
43125;BME280;49182;50.788;7.318;2023-07-29T01:30:07;100029.25;;;18.57;100.00
43125;BME280;49182;50.788;7.318;2023-07-29T01:35:15;100034.19;;;18.60;100.00
43125;BME280;49182;50.788;7.318;2023-07-29T01:40:22;100038.34;;;18.63;100.00
43125;BME280;49182;50.788;7.318;2023-07-29T01:45:26;100036.22;;;18.58;100.00
43125;BME280;49182;50.788;7.318;2023-07-29T01:50:28;100030.88;;;18.58;100.00
43125;BME280;49182;50.788;7.318;2023-07-29T01:55:31;100019.38;;;18.64;100.00
43125;BME280;49182;50.788;7.318;2023-07-29T02:00:33;100032.16;;;18.62;100.00
43125;BME280;49182;50.788;7.318;2023-07-29T02:05:35;100023.50;;;18.60;100.00
43125;BME280;49182;50.788;7.318;2023-07-29T02:10:39;100021.25;;;18.64;100.00
43125;BME280;49182;50.788;7.318;2023-07-29T02:15:41;100024.34;;;18.67;100.00
43125;BME280;49182;50.788;7.318;2023-07-29T02:20:42;99987.53;;;18.63;100.00
43125;BME280;49182;50.788;7.318;2023-07-29T02:25:45;99987.94;;;18.73;100.00
43125;BME280;49182;50.788;7.318;2023-07-29T02:31:14;99982.78;;;18.71;100.00
43125;BME280;49182;50.788;7.318;2023-07-29T02:36:16;99983.44;;;18.73;100.00
43125;BME280;49182;50.788;7.318;2023-07-29T02:41:20;99973.75;;;18.72;100.00
43125;BME280;49182;50.788;7.318;2023-07-29T02:46:21;99989.59;;;18.74;100.00
43125;BME280;49182;50.788;7.318;2023-07-29T02:51:23;99990.44;;;18.74;100.00
43125;BME280;49182;50.788;7.318;2023-07-29T02:56:26;99998.84;;;18.71;100.00
43125;BME280;49182;50.788;7.318;2023-07-29T03:01:28;99999.47;;;18.73;100.00
43125;BME280;49182;50.788;7.318;2023-07-29T03:06:30;99992.28;;;18.74;100.00
43125;BME280;49182;50.788;7.318;2023-07-29T03:11:33;99993.31;;;18.73;100.00
43125;BME280;49182;50.788;7.318;2023-07-29T03:16:34;99984.44;;;18.72;100.00
43125;BME280;49182;50.788;7.318;2023-07-29T03:21:37;99986.72;;;18.69;100.00
43125;BME280;49182;50.788;7.318;2023-07-29T03:26:40;99969.97;;;18.53;100.00
43125;BME280;49182;50.788;7.318;2023-07-29T03:31:44;99999.06;;;18.70;100.00
43125;BME280;49182;50.788;7.318;2023-07-29T03:36:46;100007.50;;;18.73;100.00
43125;BME280;49182;50.788;7.318;2023-07-29T03:41:49;100023.13;;;18.70;100.00
43125;BME280;49182;50.788;7.318;2023-07-29T03:46:51;100027.84;;;18.68;100.00
43125;BME280;49182;50.788;7.318;2023-07-29T03:51:53;100030.72;;;18.66;100.00
43125;BME280;49182;50.788;7.318;2023-07-29T03:56:56;100040.41;;;18.67;100.00
43125;BME280;49182;50.788;7.318;2023-07-29T04:01:57;100017.38;;;18.73;100.00
43125;BME280;49182;50.788;7.318;2023-07-29T04:06:59;100021.69;;;18.74;100.00
43125;BME280;49182;50.788;7.318;2023-07-29T04:12:03;100005.03;;;18.78;100.00
43125;BME280;49182;50.788;7.318;2023-07-29T04:17:05;100016.75;;;18.77;100.00
43125;BME280;49182;50.788;7.318;2023-07-29T04:22:07;100026.84;;;18.75;100.00
43125;BME280;49182;50.788;7.318;2023-07-29T04:27:10;100017.59;;;18.78;100.00
43125;BME280;49182;50.788;7.318;2023-07-29T04:32:12;100026.22;;;18.73;100.00
43125;BME280;49182;50.788;7.318;2023-07-29T04:37:16;99996.75;;;18.60;100.00
43125;BME280;49182;50.788;7.318;2023-07-29T04:42:19;100027.03;;;18.74;100.00
43125;BME280;49182;50.788;7.318;2023-07-29T04:47:21;100024.97;;;18.69;100.00
43125;BME280;49182;50.788;7.318;2023-07-29T04:52:22;100022.72;;;18.73;100.00
43125;BME280;49182;50.788;7.318;2023-07-29T04:57:25;100027.69;;;18.76;100.00
43125;BME280;49182;50.788;7.318;2023-07-29T05:02:29;100030.53;;;18.68;100.00
43125;BME280;49182;50.788;7.318;2023-07-29T05:07:31;100031.53;;;18.67;100.00
43125;BME280;49182;50.788;7.318;2023-07-29T05:12:34;100047.81;;;18.72;100.00
43125;BME280;49182;50.788;7.318;2023-07-29T05:17:35;100040.41;;;18.74;100.00
43125;BME280;49182;50.788;7.318;2023-07-29T05:22:38;100025.19;;;18.68;100.00
43125;BME280;49182;50.788;7.318;2023-07-29T05:27:41;100046.00;;;18.85;100.00
43125;BME280;49182;50.788;7.318;2023-07-29T05:32:43;100055.28;;;18.89;100.00
43125;BME280;49182;50.788;7.318;2023-07-29T05:37:45;100055.28;;;18.96;100.00
43125;BME280;49182;50.788;7.318;2023-07-29T05:42:48;100041.91;;;19.03;100.00
43125;BME280;49182;50.788;7.318;2023-07-29T05:47:50;100064.81;;;19.18;100.00
43125;BME280;49182;50.788;7.318;2023-07-29T05:52:52;100073.28;;;19.28;100.00
43125;BME280;49182;50.788;7.318;2023-07-29T05:57:55;100064.81;;;19.38;100.00
43125;BME280;49182;50.788;7.318;2023-07-29T06:02:56;100055.75;;;19.39;100.00
43125;BME280;49182;50.788;7.318;2023-07-29T06:07:58;100061.13;;;19.39;100.00
43125;BME280;49182;50.788;7.318;2023-07-29T06:13:02;100077.63;;;19.43;100.00
43125;BME280;49182;50.788;7.318;2023-07-29T06:18:03;100077.22;;;19.46;100.00
43125;BME280;49182;50.788;7.318;2023-07-29T06:23:06;100076.00;;;19.48;100.00
43125;BME280;49182;50.788;7.318;2023-07-29T06:28:10;100095.16;;;19.52;100.00
43125;BME280;49182;50.788;7.318;2023-07-29T06:33:11;100100.13;;;19.55;100.00
43125;BME280;49182;50.788;7.318;2023-07-29T06:38:13;100107.34;;;19.67;100.00
43125;BME280;49182;50.788;7.318;2023-07-29T06:43:18;100113.09;;;19.77;100.00
43125;BME280;49182;50.788;7.318;2023-07-29T06:48:20;100114.75;;;19.85;100.00
43125;BME280;49182;50.788;7.318;2023-07-29T06:53:21;100118.66;;;19.96;100.00
43125;BME280;49182;50.788;7.318;2023-07-29T06:58:25;100121.31;;;20.09;100.00
43125;BME280;49182;50.788;7.318;2023-07-29T07:03:26;100113.09;;;20.10;100.00
43125;BME280;49182;50.788;7.318;2023-07-29T07:08:28;100116.78;;;20.16;100.00
43125;BME280;49182;50.788;7.318;2023-07-29T07:13:31;100126.25;;;20.18;100.00
43125;BME280;49182;50.788;7.318;2023-07-29T07:18:33;100123.19;;;20.35;100.00
43125;BME280;49182;50.788;7.318;2023-07-29T07:23:34;100120.19;;;20.63;100.00
43125;BME280;49182;50.788;7.318;2023-07-29T07:28:37;100129.84;;;20.83;100.00
43125;BME280;49182;50.788;7.318;2023-07-29T07:33:39;100143.00;;;20.98;100.00
43125;BME280;49182;50.788;7.318;2023-07-29T07:38:41;100152.16;;;20.77;94.02
43125;BME280;49182;50.788;7.318;2023-07-29T07:43:44;100146.75;;;20.90;92.90
43125;BME280;49182;50.788;7.318;2023-07-29T07:48:45;100140.94;;;20.93;92.79
43125;BME280;49182;50.788;7.318;2023-07-29T07:53:48;100145.13;;;20.76;90.71
43125;BME280;49182;50.788;7.318;2023-07-29T07:58:51;100146.72;;;20.97;92.42
43125;BME280;49182;50.788;7.318;2023-07-29T08:03:53;100143.53;;;21.20;93.21
43125;BME280;49182;50.788;7.318;2023-07-29T08:08:55;100148.16;;;21.37;90.74
43125;BME280;49182;50.788;7.318;2023-07-29T08:13:57;100136.53;;;21.50;85.21
43125;BME280;49182;50.788;7.318;2023-07-29T08:18:59;100151.84;;;21.43;87.01
43125;BME280;49182;50.788;7.318;2023-07-29T08:24:01;100149.06;;;21.25;79.73
43125;BME280;49182;50.788;7.318;2023-07-29T08:29:04;100145.81;;;21.16;80.33
43125;BME280;49182;50.788;7.318;2023-07-29T08:34:05;100154.72;;;21.10;80.78
43125;BME280;49182;50.788;7.318;2023-07-29T08:39:07;100156.47;;;21.29;83.55
43125;BME280;49182;50.788;7.318;2023-07-29T08:44:15;100160.44;;;21.58;81.00
43125;BME280;49182;50.788;7.318;2023-07-29T08:49:19;100166.91;;;21.82;78.24
43125;BME280;49182;50.788;7.318;2023-07-29T08:54:21;100132.16;;;21.80;78.14
43125;BME280;49182;50.788;7.318;2023-07-29T08:59:25;100163.22;;;22.08;74.51
43125;BME280;49182;50.788;7.318;2023-07-29T09:04:27;100167.19;;;21.99;75.55
43125;BME280;49182;50.788;7.318;2023-07-29T09:09:29;100171.16;;;21.96;72.99
43125;BME280;49182;50.788;7.318;2023-07-29T09:14:32;100164.78;;;21.59;69.98
43125;BME280;49182;50.788;7.318;2023-07-29T09:19:34;100176.81;;;21.50;73.30
43125;BME280;49182;50.788;7.318;2023-07-29T09:24:36;100185.56;;;21.39;74.24
43125;BME280;49182;50.788;7.318;2023-07-29T09:29:39;100181.94;;;21.20;75.25
43125;BME280;49182;50.788;7.318;2023-07-29T09:34:41;100171.41;;;21.12;77.83
43125;BME280;49182;50.788;7.318;2023-07-29T09:39:44;100187.13;;;21.09;78.45
43125;BME280;49182;50.788;7.318;2023-07-29T09:44:48;100181.97;;;21.07;78.66
43125;BME280;49182;50.788;7.318;2023-07-29T09:49:51;100192.50;;;21.15;78.68
43125;BME280;49182;50.788;7.318;2023-07-29T09:54:54;100197.44;;;21.12;79.74
43125;BME280;49182;50.788;7.318;2023-07-29T09:59:57;100196.09;;;21.41;81.02
43125;BME280;49182;50.788;7.318;2023-07-29T10:04:59;100191.91;;;21.51;75.81
43125;BME280;49182;50.788;7.318;2023-07-29T10:10:02;100198.19;;;21.70;73.41
43125;BME280;49182;50.788;7.318;2023-07-29T10:15:06;100194.19;;;21.79;74.13
43125;BME280;49182;50.788;7.318;2023-07-29T10:20:10;100197.50;;;21.81;72.11
43125;BME280;49182;50.788;7.318;2023-07-29T10:25:15;100205.47;;;22.01;74.57
43125;BME280;49182;50.788;7.318;2023-07-29T10:30:19;100208.97;;;22.01;73.28
43125;BME280;49182;50.788;7.318;2023-07-29T10:35:21;100207.38;;;21.87;70.65
43125;BME280;49182;50.788;7.318;2023-07-29T10:40:23;100211.28;;;21.91;71.98
43125;BME280;49182;50.788;7.318;2023-07-29T10:45:26;100209.78;;;22.02;71.82
43125;BME280;49182;50.788;7.318;2023-07-29T10:50:28;100201.38;;;21.85;75.22
43125;BME280;49182;50.788;7.318;2023-07-29T10:55:32;100214.97;;;21.65;76.20
43125;BME280;49182;50.788;7.318;2023-07-29T11:00:35;100224.84;;;21.33;81.11
43125;BME280;49182;50.788;7.318;2023-07-29T11:05:46;100224.00;;;21.39;83.01
43125;BME280;49182;50.788;7.318;2023-07-29T11:10:58;100222.84;;;21.22;82.17
43125;BME280;49182;50.788;7.318;2023-07-29T11:16:02;100223.38;;;21.37;82.32
43125;BME280;49182;50.788;7.318;2023-07-29T11:21:04;100207.56;;;21.54;83.21
43125;BME280;49182;50.788;7.318;2023-07-29T11:26:06;100206.34;;;21.57;83.35
43125;BME280;49182;50.788;7.318;2023-07-29T11:31:09;100206.97;;;21.90;83.35
43125;BME280;49182;50.788;7.318;2023-07-29T11:36:17;100212.25;;;22.28;82.78
43125;BME280;49182;50.788;7.318;2023-07-29T11:41:20;100209.78;;;22.51;81.47
43125;BME280;49182;50.788;7.318;2023-07-29T11:46:23;100197.44;;;22.62;79.87
43125;BME280;49182;50.788;7.318;2023-07-29T11:51:26;100206.81;;;22.96;77.11
43125;BME280;49182;50.788;7.318;2023-07-29T11:56:29;100176.25;;;22.90;75.21
43125;BME280;49182;50.788;7.318;2023-07-29T12:01:32;100201.22;;;23.16;73.38
43125;BME280;49182;50.788;7.318;2023-07-29T12:06:34;100194.50;;;22.88;75.64
43125;BME280;49182;50.788;7.318;2023-07-29T12:11:37;100182.97;;;22.99;75.11
43125;BME280;49182;50.788;7.318;2023-07-29T12:16:43;100167.84;;;23.17;74.60
43125;BME280;49182;50.788;7.318;2023-07-29T12:21:45;100163.81;;;23.08;72.69
43125;BME280;49182;50.788;7.318;2023-07-29T12:26:47;100164.00;;;23.24;70.08
43125;BME280;49182;50.788;7.318;2023-07-29T12:31:57;100155.72;;;23.56;69.92
43125;BME280;49182;50.788;7.318;2023-07-29T12:36:59;100156.75;;;24.08;71.44
43125;BME280;49182;50.788;7.318;2023-07-29T12:42:04;100155.34;;;24.05;63.86
43125;BME280;49182;50.788;7.318;2023-07-29T12:47:07;100146.44;;;24.05;66.85
43125;BME280;49182;50.788;7.318;2023-07-29T12:52:08;100139.28;;;24.10;64.46
43125;BME280;49182;50.788;7.318;2023-07-29T12:57:10;100151.13;;;24.44;66.06
43125;BME280;49182;50.788;7.318;2023-07-29T13:02:13;100138.53;;;24.85;67.16
43125;BME280;49182;50.788;7.318;2023-07-29T13:07:15;100135.03;;;24.73;62.30
43125;BME280;49182;50.788;7.318;2023-07-29T13:12:17;100132.16;;;25.03;63.36
43125;BME280;49182;50.788;7.318;2023-07-29T13:17:21;100130.03;;;25.05;64.41
43125;BME280;49182;50.788;7.318;2023-07-29T13:22:24;100147.31;;;25.04;60.78
43125;BME280;49182;50.788;7.318;2023-07-29T13:27:25;100138.53;;;24.85;59.90
43125;BME280;49182;50.788;7.318;2023-07-29T13:32:28;100144.56;;;24.52;61.56
43125;BME280;49182;50.788;7.318;2023-07-29T13:37:30;100140.47;;;24.26;62.62
43125;BME280;49182;50.788;7.318;2023-07-29T13:42:32;100133.75;;;23.94;66.31
43125;BME280;49182;50.788;7.318;2023-07-29T13:47:36;100140.13;;;23.58;70.85
43125;BME280;49182;50.788;7.318;2023-07-29T13:52:38;100137.91;;;23.25;72.64
43125;BME280;49182;50.788;7.318;2023-07-29T13:57:40;100140.13;;;22.98;75.65
43125;BME280;49182;50.788;7.318;2023-07-29T14:02:43;100133.78;;;22.74;77.73
43125;BME280;49182;50.788;7.318;2023-07-29T14:07:45;100148.41;;;22.60;77.34
43125;BME280;49182;50.788;7.318;2023-07-29T14:12:46;100138.09;;;22.39;80.98
43125;BME280;49182;50.788;7.318;2023-07-29T14:17:49;100137.94;;;22.34;84.13
43125;BME280;49182;50.788;7.318;2023-07-29T14:22:51;100119.38;;;22.26;83.81
43125;BME280;49182;50.788;7.318;2023-07-29T14:27:53;100122.06;;;22.26;84.91
43125;BME280;49182;50.788;7.318;2023-07-29T14:32:56;100124.75;;;22.26;85.72
43125;BME280;49182;50.788;7.318;2023-07-29T14:37:58;100146.00;;;22.34;86.65
43125;BME280;49182;50.788;7.318;2023-07-29T14:43:00;100134.50;;;22.45;86.74
43125;BME280;49182;50.788;7.318;2023-07-29T14:48:03;100053.16;;;22.06;85.67
43125;BME280;49182;50.788;7.318;2023-07-29T14:53:07;100139.22;;;22.68;85.37
43125;BME280;49182;50.788;7.318;2023-07-29T14:58:09;100130.25;;;22.74;84.95
43125;BME280;49182;50.788;7.318;2023-07-29T15:03:12;100134.31;;;22.83;84.59
43125;BME280;49182;50.788;7.318;2023-07-29T15:08:14;100150.38;;;22.89;84.52
43125;BME280;49182;50.788;7.318;2023-07-29T15:13:16;100158.81;;;22.93;86.32
43125;BME280;49182;50.788;7.318;2023-07-29T15:18:19;100158.28;;;23.03;84.77
43125;BME280;49182;50.788;7.318;2023-07-29T15:23:21;100152.88;;;23.03;72.53
43125;BME280;49182;50.788;7.318;2023-07-29T15:28:22;100148.09;;;23.05;71.69
43125;BME280;49182;50.788;7.318;2023-07-29T15:33:26;100154.28;;;23.23;73.68
43125;BME280;49182;50.788;7.318;2023-07-29T15:38:27;100153.38;;;23.29;73.78
43125;BME280;49182;50.788;7.318;2023-07-29T15:43:29;100157.41;;;23.68;73.25
43125;BME280;49182;50.788;7.318;2023-07-29T15:48:32;100129.00;;;23.54;70.17
43125;BME280;49182;50.788;7.318;2023-07-29T15:53:34;100157.94;;;23.59;71.04
43125;BME280;49182;50.788;7.318;2023-07-29T15:58:36;100164.19;;;23.41;72.51
43125;BME280;49182;50.788;7.318;2023-07-29T16:03:39;100176.19;;;23.27;73.62
43125;BME280;49182;50.788;7.318;2023-07-29T16:08:41;100185.75;;;22.93;76.59
43125;BME280;49182;50.788;7.318;2023-07-29T16:13:42;100197.38;;;22.69;78.87
43125;BME280;49182;50.788;7.318;2023-07-29T16:18:45;100195.38;;;22.64;79.99
43125;BME280;49182;50.788;7.318;2023-07-29T16:23:47;100189.22;;;22.57;80.61
43125;BME280;49182;50.788;7.318;2023-07-29T16:28:49;100188.44;;;22.32;80.97
43125;BME280;49182;50.788;7.318;2023-07-29T16:33:52;100171.00;;;22.34;82.64
43125;BME280;49182;50.788;7.318;2023-07-29T16:38:54;100166.84;;;22.38;83.29
43125;BME280;49182;50.788;7.318;2023-07-29T16:43:56;100175.13;;;22.37;83.12
43125;BME280;49182;50.788;7.318;2023-07-29T16:48:59;100165.69;;;22.71;81.93
43125;BME280;49182;50.788;7.318;2023-07-29T16:54:01;100155.63;;;23.32;78.83
43125;BME280;49182;50.788;7.318;2023-07-29T16:59:02;100163.00;;;23.55;72.60
43125;BME280;49182;50.788;7.318;2023-07-29T17:04:05;100157.41;;;23.38;74.40
43125;BME280;49182;50.788;7.318;2023-07-29T17:09:07;100157.69;;;24.02;72.39
43125;BME280;49182;50.788;7.318;2023-07-29T17:14:09;100152.47;;;24.18;69.81
43125;BME280;49182;50.788;7.318;2023-07-29T17:19:12;100137.41;;;23.99;71.22
43125;BME280;49182;50.788;7.318;2023-07-29T17:24:13;100158.03;;;23.82;70.57
43125;BME280;49182;50.788;7.318;2023-07-29T17:29:15;100162.59;;;23.22;69.86
43125;BME280;49182;50.788;7.318;2023-07-29T17:34:18;100150.66;;;22.99;71.47
43125;BME280;49182;50.788;7.318;2023-07-29T17:39:20;100154.94;;;22.71;73.35
43125;BME280;49182;50.788;7.318;2023-07-29T17:44:22;100146.97;;;22.39;77.76
43125;BME280;49182;50.788;7.318;2023-07-29T17:49:25;100156.06;;;22.20;78.48
43125;BME280;49182;50.788;7.318;2023-07-29T17:54:26;100158.50;;;22.03;79.45
43125;BME280;49182;50.788;7.318;2023-07-29T17:59:28;100162.84;;;21.98;80.21
43125;BME280;49182;50.788;7.318;2023-07-29T18:04:31;100154.50;;;21.81;81.82
43125;BME280;49182;50.788;7.318;2023-07-29T18:09:33;100145.97;;;21.59;83.59
43125;BME280;49182;50.788;7.318;2023-07-29T18:14:34;100154.72;;;21.48;84.97
43125;BME280;49182;50.788;7.318;2023-07-29T18:19:37;100158.41;;;21.22;86.10
43125;BME280;49182;50.788;7.318;2023-07-29T18:24:39;100163.22;;;20.94;86.01
43125;BME280;49182;50.788;7.318;2023-07-29T18:29:40;100166.78;;;20.81;87.73
43125;BME280;49182;50.788;7.318;2023-07-29T18:34:44;100161.03;;;20.71;88.60
43125;BME280;49182;50.788;7.318;2023-07-29T18:39:45;100149.13;;;20.61;90.61
43125;BME280;49182;50.788;7.318;2023-07-29T18:44:47;100158.22;;;20.46;92.60
43125;BME280;49182;50.788;7.318;2023-07-29T18:49:50;100170.00;;;20.32;92.36
43125;BME280;49182;50.788;7.318;2023-07-29T18:54:52;100174.31;;;20.20;93.22
43125;BME280;49182;50.788;7.318;2023-07-29T18:59:53;100163.81;;;20.12;94.40
43125;BME280;49182;50.788;7.318;2023-07-29T19:04:56;100176.38;;;19.92;94.35
43125;BME280;49182;50.788;7.318;2023-07-29T19:09:58;100179.69;;;19.81;95.11
43125;BME280;49182;50.788;7.318;2023-07-29T19:15:00;100176.34;;;19.72;96.32
43125;BME280;49182;50.788;7.318;2023-07-29T19:20:04;100189.09;;;19.57;95.98
43125;BME280;49182;50.788;7.318;2023-07-29T19:25:06;100083.00;;;18.69;97.07
43125;BME280;49182;50.788;7.318;2023-07-29T19:30:08;100193.94;;;19.27;98.55
43125;BME280;49182;50.788;7.318;2023-07-29T19:35:11;100205.81;;;19.11;99.53
43125;BME280;49182;50.788;7.318;2023-07-29T19:40:13;100210.88;;;18.93;100.00
43125;BME280;49182;50.788;7.318;2023-07-29T19:45:15;100214.72;;;18.84;100.00
43125;BME280;49182;50.788;7.318;2023-07-29T19:50:18;100213.25;;;18.75;100.00
43125;BME280;49182;50.788;7.318;2023-07-29T19:55:20;100210.69;;;18.60;100.00
43125;BME280;49182;50.788;7.318;2023-07-29T20:00:21;100198.44;;;18.44;100.00
43125;BME280;49182;50.788;7.318;2023-07-29T20:05:26;100189.72;;;18.36;100.00
43125;BME280;49182;50.788;7.318;2023-07-29T20:10:28;100190.25;;;18.25;100.00
43125;BME280;49182;50.788;7.318;2023-07-29T20:15:30;100202.97;;;18.23;100.00
43125;BME280;49182;50.788;7.318;2023-07-29T20:20:33;100202.50;;;18.12;100.00
43125;BME280;49182;50.788;7.318;2023-07-29T20:25:35;100200.78;;;18.05;100.00
43125;BME280;49182;50.788;7.318;2023-07-29T20:30:36;100196.81;;;17.94;100.00
43125;BME280;49182;50.788;7.318;2023-07-29T20:35:39;100192.59;;;17.85;100.00
43125;BME280;49182;50.788;7.318;2023-07-29T20:40:48;100198.75;;;17.86;100.00
43125;BME280;49182;50.788;7.318;2023-07-29T20:45:50;100200.09;;;17.75;100.00
43125;BME280;49182;50.788;7.318;2023-07-29T20:50:53;100196.94;;;17.65;100.00
43125;BME280;49182;50.788;7.318;2023-07-29T20:55:55;100046.97;;;16.62;100.00
43125;BME280;49182;50.788;7.318;2023-07-29T21:00:56;100211.78;;;17.53;100.00
43125;BME280;49182;50.788;7.318;2023-07-29T21:06:00;100201.38;;;17.43;100.00
43125;BME280;49182;50.788;7.318;2023-07-29T21:11:01;100207.66;;;17.35;100.00
43125;BME280;49182;50.788;7.318;2023-07-29T21:16:04;100218.06;;;17.30;100.00
43125;BME280;49182;50.788;7.318;2023-07-29T21:21:07;100210.81;;;17.24;100.00
43125;BME280;49182;50.788;7.318;2023-07-29T21:26:08;100224.34;;;17.23;100.00
43125;BME280;49182;50.788;7.318;2023-07-29T21:31:10;100222.22;;;17.18;100.00
43125;BME280;49182;50.788;7.318;2023-07-29T21:36:13;100230.06;;;17.20;100.00
43125;BME280;49182;50.788;7.318;2023-07-29T21:41:15;100232.47;;;17.15;100.00
43125;BME280;49182;50.788;7.318;2023-07-29T21:46:17;100235.03;;;17.08;100.00
43125;BME280;49182;50.788;7.318;2023-07-29T21:51:20;100232.16;;;17.10;100.00
43125;BME280;49182;50.788;7.318;2023-07-29T21:56:21;100244.72;;;16.94;100.00
43125;BME280;49182;50.788;7.318;2023-07-29T22:01:23;100256.94;;;16.89;100.00
43125;BME280;49182;50.788;7.318;2023-07-29T22:06:26;100267.78;;;16.87;100.00
43125;BME280;49182;50.788;7.318;2023-07-29T22:11:28;100279.56;;;16.78;100.00
43125;BME280;49182;50.788;7.318;2023-07-29T22:16:30;100271.88;;;16.61;100.00
43125;BME280;49182;50.788;7.318;2023-07-29T22:21:33;100286.63;;;16.71;100.00
43125;BME280;49182;50.788;7.318;2023-07-29T22:26:35;100287.81;;;16.69;100.00
43125;BME280;49182;50.788;7.318;2023-07-29T22:31:37;100299.88;;;16.56;100.00
43125;BME280;49182;50.788;7.318;2023-07-29T22:36:40;100298.94;;;16.49;100.00
43125;BME280;49182;50.788;7.318;2023-07-29T22:41:42;100303.00;;;16.45;100.00
43125;BME280;49182;50.788;7.318;2023-07-29T22:46:45;100304.72;;;16.38;100.00
43125;BME280;49182;50.788;7.318;2023-07-29T22:51:48;100317.09;;;16.31;100.00
43125;BME280;49182;50.788;7.318;2023-07-29T22:56:50;100311.31;;;16.28;100.00
43125;BME280;49182;50.788;7.318;2023-07-29T23:01:52;100314.13;;;16.26;100.00
43125;BME280;49182;50.788;7.318;2023-07-29T23:06:55;100313.00;;;16.21;100.00
43125;BME280;49182;50.788;7.318;2023-07-29T23:11:56;100318.06;;;16.15;100.00
43125;BME280;49182;50.788;7.318;2023-07-29T23:16:58;100324.25;;;16.08;100.00
43125;BME280;49182;50.788;7.318;2023-07-29T23:22:02;100313.53;;;15.93;100.00
43125;BME280;49182;50.788;7.318;2023-07-29T23:27:04;100325.38;;;15.91;100.00
43125;BME280;49182;50.788;7.318;2023-07-29T23:32:06;100317.88;;;15.86;100.00
43125;BME280;49182;50.788;7.318;2023-07-29T23:37:09;100330.06;;;15.81;100.00
43125;BME280;49182;50.788;7.318;2023-07-29T23:42:11;100302.72;;;15.64;100.00
43125;BME280;49182;50.788;7.318;2023-07-29T23:47:13;100316.69;;;15.66;100.00
43125;BME280;49182;50.788;7.318;2023-07-29T23:52:16;100316.25;;;15.54;100.00
43125;BME280;49182;50.788;7.318;2023-07-29T23:57:18;100320.91;;;15.44;100.00
